UAL1819 KEGE-KORD
Flight info
| Callsign | UAL1819 |
|---|---|
| Flight time | N/A |
| Altitude | 39000 |
| Route | APRES2 BELGN SNY FOD MYRRS FYTTE7 |
| Aircraft | B737/M-SDE2E3FGHIRWXY/LB1 |
Departure
| Time | 2026-04-21 21:09 |
|---|---|
| Airport | Eagle County Regional Airport (KEGE) |
Arrival
| Time | N/A |
|---|---|
| Airport | Chicago O'Hare International Airport (KORD) |
| Time | Latitude | Longitude | Altitude | Speed | Heading |
|---|---|---|---|---|---|
| 2026-04-21 20:54 | 39.64079 | -106.91335 | 6517 ft | 0 kts | 171° |
| 2026-04-21 21:05 | 39.64081 | -106.91335 | 6544 ft | 4 kts | 171° |
| 2026-04-21 21:06 | 39.64102 | -106.91342 | 6515 ft | 0 kts | 144° |
| 2026-04-21 21:06 | 39.64098 | -106.91326 | 6506 ft | 3 kts | 91° |
| 2026-04-21 21:06 | 39.64146 | -106.91261 | 6520 ft | 20 kts | 26° |
| 2026-04-21 21:06 | 39.64219 | -106.91125 | 6523 ft | 19 kts | 83° |
| 2026-04-21 21:07 | 39.64236 | -106.90955 | 6528 ft | 19 kts | 83° |
| 2026-04-21 21:07 | 39.64253 | -106.90789 | 6534 ft | 18 kts | 81° |
| 2026-04-21 21:07 | 39.64274 | -106.90609 | 6536 ft | 22 kts | 82° |
| 2026-04-21 21:07 | 39.64298 | -106.90396 | 6542 ft | 24 kts | 82° |
| 2026-04-21 21:08 | 39.64320 | -106.90190 | 6547 ft | 23 kts | 82° |
| 2026-04-21 21:08 | 39.64368 | -106.90020 | 6552 ft | 19 kts | 21° |
| 2026-04-21 21:08 | 39.64438 | -106.90034 | 6552 ft | 6 kts | 322° |
| 2026-04-21 21:08 | 39.64434 | -106.90155 | 6548 ft | 39 kts | 262° |
| 2026-04-21 21:09 | 39.64359 | -106.90837 | 6531 ft | 112 kts | 262° |
| 2026-04-21 21:09 | 39.64217 | -106.92105 | 6530 ft | 167 kts | 258° |
| 2026-04-21 21:09 | 39.64042 | -106.93639 | 7231 ft | 170 kts | 257° |
| 2026-04-21 21:09 | 39.63513 | -106.94979 | 7936 ft | 176 kts | 217° |
| 2026-04-21 21:10 | 39.62390 | -106.95886 | 8276 ft | 207 kts | 215° |
| 2026-04-21 21:10 | 39.61120 | -106.96955 | 8683 ft | 229 kts | 215° |
| 2026-04-21 21:10 | 39.59713 | -106.98169 | 8967 ft | 256 kts | 218° |
| 2026-04-21 21:10 | 39.58462 | -106.99760 | 9843 ft | 249 kts | 234° |
| 2026-04-21 21:11 | 39.57679 | -107.01785 | 10679 ft | 254 kts | 253° |
| 2026-04-21 21:11 | 39.57456 | -107.04098 | 11372 ft | 265 kts | 273° |
| 2026-04-21 21:11 | 39.57878 | -107.06432 | 12172 ft | 274 kts | 290° |
| 2026-04-21 21:11 | 39.58893 | -107.08577 | 12934 ft | 284 kts | 309° |
| 2026-04-21 21:12 | 39.60397 | -107.10222 | 13935 ft | 286 kts | 328° |
| 2026-04-21 21:12 | 39.62294 | -107.11123 | 14704 ft | 296 kts | 350° |
| 2026-04-21 21:12 | 39.64345 | -107.11134 | 15516 ft | 305 kts | 9° |
| 2026-04-21 21:12 | 39.66428 | -107.10468 | 16315 ft | 309 kts | 13° |
| 2026-04-21 21:13 | 39.68520 | -107.09849 | 17271 ft | 311 kts | 12° |
| 2026-04-21 21:13 | 39.70657 | -107.09251 | 18036 ft | 317 kts | 12° |
| 2026-04-21 21:13 | 39.72790 | -107.08494 | 18777 ft | 323 kts | 27° |
| 2026-04-21 21:13 | 39.74604 | -107.06740 | 19337 ft | 330 kts | 46° |
| 2026-04-21 21:14 | 39.76230 | -107.04573 | 19865 ft | 343 kts | 48° |
| 2026-04-21 21:14 | 39.77911 | -107.02235 | 20029 ft | 366 kts | 48° |
| 2026-04-21 21:14 | 39.79695 | -106.99751 | 20198 ft | 388 kts | 48° |
| 2026-04-21 21:14 | 39.81598 | -106.97125 | 20333 ft | 409 kts | 47° |
| 2026-04-21 21:15 | 39.83606 | -106.94382 | 20460 ft | 428 kts | 47° |
| 2026-04-21 21:15 | 39.85695 | -106.91546 | 20783 ft | 438 kts | 47° |
| 2026-04-21 21:15 | 39.87819 | -106.88667 | 21319 ft | 441 kts | 47° |
| 2026-04-21 21:15 | 39.89951 | -106.85774 | 21869 ft | 444 kts | 47° |
| 2026-04-21 21:16 | 39.92101 | -106.82852 | 22402 ft | 448 kts | 47° |
| 2026-04-21 21:16 | 39.94266 | -106.79905 | 22934 ft | 452 kts | 47° |
| 2026-04-21 21:16 | 39.96447 | -106.76932 | 23468 ft | 456 kts | 47° |
| 2026-04-21 21:16 | 39.98649 | -106.73928 | 23894 ft | 459 kts | 47° |
| 2026-04-21 21:17 | 40.00859 | -106.70910 | 24339 ft | 462 kts | 47° |
| 2026-04-21 21:17 | 40.03060 | -106.67903 | 24785 ft | 465 kts | 47° |
| 2026-04-21 21:17 | 40.05165 | -106.64702 | 25217 ft | 466 kts | 58° |
| 2026-04-21 21:17 | 40.06544 | -106.60836 | 25625 ft | 465 kts | 76° |
| 2026-04-21 21:18 | 40.07290 | -106.56788 | 26066 ft | 466 kts | 79° |
| 2026-04-21 21:18 | 40.07977 | -106.52644 | 26458 ft | 469 kts | 79° |
| 2026-04-21 21:18 | 40.08664 | -106.48472 | 26826 ft | 472 kts | 79° |
| 2026-04-21 21:18 | 40.09375 | -106.44266 | 27182 ft | 475 kts | 79° |
| 2026-04-21 21:19 | 40.10108 | -106.40051 | 27531 ft | 478 kts | 78° |
| 2026-04-21 21:19 | 40.10861 | -106.35796 | 27883 ft | 481 kts | 78° |
| 2026-04-21 21:19 | 40.11619 | -106.31528 | 28229 ft | 484 kts | 78° |
| 2026-04-21 21:19 | 40.12379 | -106.27237 | 28589 ft | 486 kts | 78° |
| 2026-04-21 21:20 | 40.13170 | -106.22923 | 28921 ft | 489 kts | 75° |
| 2026-04-21 21:20 | 40.14272 | -106.18705 | 29243 ft | 493 kts | 70° |
| 2026-04-21 21:20 | 40.15573 | -106.14550 | 29606 ft | 494 kts | 68° |
| 2026-04-21 21:20 | 40.16942 | -106.10444 | 30086 ft | 493 kts | 67° |
| 2026-04-21 21:21 | 40.18323 | -106.06344 | 30583 ft | 491 kts | 67° |
| 2026-04-21 21:21 | 40.19680 | -106.02251 | 31060 ft | 489 kts | 68° |
| 2026-04-21 21:21 | 40.21008 | -105.98162 | 31486 ft | 488 kts | 68° |
| 2026-04-21 21:21 | 40.22311 | -105.94069 | 31992 ft | 486 kts | 68° |
| 2026-04-21 21:22 | 40.23592 | -105.89988 | 32650 ft | 484 kts | 68° |
| 2026-04-21 21:22 | 40.24864 | -105.85907 | 33031 ft | 485 kts | 68° |
| 2026-04-21 21:22 | 40.26133 | -105.81816 | 33339 ft | 486 kts | 69° |
| 2026-04-21 21:22 | 40.27404 | -105.77708 | 33669 ft | 486 kts | 69° |
| 2026-04-21 21:23 | 40.28672 | -105.73611 | 34049 ft | 485 kts | 69° |
| 2026-04-21 21:23 | 40.29939 | -105.69514 | 34402 ft | 484 kts | 69° |
| 2026-04-21 21:23 | 40.31202 | -105.65426 | 34720 ft | 483 kts | 69° |
| 2026-04-21 21:23 | 40.32462 | -105.61342 | 34965 ft | 484 kts | 69° |
| 2026-04-21 21:24 | 40.33724 | -105.57248 | 35220 ft | 484 kts | 69° |
| 2026-04-21 21:24 | 40.34982 | -105.53159 | 35546 ft | 483 kts | 69° |
| 2026-04-21 21:24 | 40.36232 | -105.49093 | 35860 ft | 481 kts | 69° |
| 2026-04-21 21:24 | 40.37464 | -105.45080 | 36168 ft | 480 kts | 69° |
| 2026-04-21 21:25 | 40.38710 | -105.41014 | 36450 ft | 480 kts | 69° |
| 2026-04-21 21:25 | 40.39953 | -105.36951 | 36743 ft | 479 kts | 69° |
| 2026-04-21 21:25 | 40.41191 | -105.32897 | 37056 ft | 478 kts | 69° |
| 2026-04-21 21:25 | 40.42426 | -105.28849 | 37343 ft | 478 kts | 69° |
| 2026-04-21 21:26 | 40.43660 | -105.24797 | 37590 ft | 478 kts | 69° |
| 2026-04-21 21:26 | 40.44891 | -105.20748 | 37895 ft | 477 kts | 69° |
| 2026-04-21 21:26 | 40.46120 | -105.16701 | 38193 ft | 477 kts | 69° |
| 2026-04-21 21:26 | 40.47345 | -105.12660 | 38470 ft | 477 kts | 69° |
| 2026-04-21 21:27 | 40.48570 | -105.08612 | 38710 ft | 476 kts | 69° |
| 2026-04-21 21:27 | 40.49791 | -105.04572 | 38919 ft | 476 kts | 69° |
| 2026-04-21 21:27 | 40.51013 | -105.00526 | 39021 ft | 478 kts | 69° |
| 2026-04-21 21:27 | 40.52243 | -104.96442 | 38852 ft | 480 kts | 69° |
| 2026-04-21 21:28 | 40.54692 | -104.88297 | 38844 ft | 477 kts | 69° |
| 2026-04-21 21:29 | 40.58329 | -104.76154 | 38867 ft | 474 kts | 69° |
| 2026-04-21 21:29 | 40.60734 | -104.68093 | 38867 ft | 473 kts | 69° |
| 2026-04-21 21:30 | 40.63135 | -104.60021 | 38898 ft | 473 kts | 69° |
| 2026-04-21 21:30 | 40.65535 | -104.51926 | 38898 ft | 475 kts | 70° |